Time;durP1;ratioP1;P1;durP2;ratioP2;P2;SDS_P1;SDS_P2;PMS_P1;PMS_P2;Temp;Humidity;BMP_temperature;BMP_pressure;BME280_temperature;BME280_humidity;BME280_pressure;Samples;Min_cycle;Max_cycle;Signal;HPM_P1;HPM_P2
2023/05/26 00:02:14;;;;;;;;;;;;;;;16.12;28.03;101356.41;6185117;23;20011;-58
2023/05/26 00:04:43;;;;;;;;;;;;;;;16.16;28.28;101373.91;6185046;23;19955;-58
2023/05/26 00:07:08;;;;;;;;;;;;;;;16.03;28.39;101369.31;6159433;23;20257;-57
2023/05/26 00:09:33;;;;;;;;;;;;;;;16.23;28.41;101352.19;6185609;23;20011;-57
2023/05/26 00:11:59;;;;;;;;;;;;;;;16.26;28.04;101354.50;6185579;23;19975;-58
2023/05/26 00:14:24;;;;;;;;;;;;;;;16.16;28.58;101338.66;6185226;23;20234;-57
2023/05/26 00:16:49;;;;;;;;;;;;;;;16.21;28.25;101329.91;6185352;23;19908;-57
2023/05/26 00:19:17;;;;;;;;;;;;;;;16.19;28.38;101311.13;6185175;23;19915;-58
2023/05/26 00:21:42;;;;;;;;;;;;;;;16.05;28.93;101344.72;6158774;23;19915;-58
2023/05/26 00:24:08;;;;;;;;;;;;;;;16.06;28.59;101349.06;6185479;23;19909;-59
2023/05/26 00:26:33;;;;;;;;;;;;;;;16.08;28.74;101338.03;6185245;23;20263;-58
2023/05/26 00:28:59;;;;;;;;;;;;;;;16.28;28.37;101338.03;6158769;23;19913;-58
2023/05/26 00:31:24;;;;;;;;;;;;;;;16.43;27.86;101330.50;6185394;23;19928;-58
2023/05/26 00:33:49;;;;;;;;;;;;;;;16.28;28.32;101348.88;6158613;23;19908;-58
2023/05/26 00:36:15;;;;;;;;;;;;;;;16.31;28.17;101348.47;6184358;23;20498;-58
2023/05/26 00:38:40;;;;;;;;;;;;;;;16.44;27.92;101343.84;6184026;23;19908;-57
2023/05/26 00:41:05;;;;;;;;;;;;;;;16.48;28.12;101346.97;6185378;23;20274;-58
2023/05/26 00:43:31;;;;;;;;;;;;;;;16.51;28.06;101361.97;6184282;23;19908;-58
2023/05/26 00:45:56;;;;;;;;;;;;;;;16.49;27.84;101366.78;6185901;23;19915;-57
2023/05/26 00:48:21;;;;;;;;;;;;;;;16.58;27.82;101381.78;6186922;23;19934;-58
2023/05/26 00:50:47;;;;;;;;;;;;;;;16.51;28.07;101386.38;6184924;23;19916;-54
2023/05/26 00:53:13;;;;;;;;;;;;;;;16.46;28.31;101365.34;6185095;23;19908;-57
2023/05/26 00:55:38;;;;;;;;;;;;;;;16.38;28.40;101377.22;6185068;23;19962;-56
2023/05/26 00:58:04;;;;;;;;;;;;;;;16.47;28.22;101366.16;6158819;23;19912;-54
2023/05/26 01:00:29;;;;;;;;;;;;;;;16.53;28.16;101373.44;6185249;23;20230;-58
2023/05/26 01:02:56;;;;;;;;;;;;;;;16.51;27.62;101380.97;6184711;23;19908;-57
2023/05/26 01:05:22;;;;;;;;;;;;;;;16.39;27.68;101380.78;6185227;23;19948;-57
2023/05/26 01:07:47;;;;;;;;;;;;;;;16.38;27.43;101373.66;6184895;23;19908;-53
2023/05/26 01:10:12;;;;;;;;;;;;;;;16.39;27.96;101373.47;6184392;23;19919;-56
2023/05/26 01:12:47;;;;;;;;;;;;;;;16.49;27.55;101374.91;6184298;23;19908;-57
2023/05/26 01:15:15;;;;;;;;;;;;;;;16.44;27.25;101376.38;6184502;23;19991;-58
2023/05/26 01:17:46;;;;;;;;;;;;;;;16.15;28.11;101376.81;6184586;23;20311;-58
2023/05/26 01:20:15;;;;;;;;;;;;;;;16.17;28.19;101374.72;6184673;23;19908;-57
2023/05/26 01:22:40;;;;;;;;;;;;;;;16.15;28.42;101371.41;6184456;23;20281;-57
2023/05/26 01:25:31;;;;;;;;;;;;;;;16.06;28.40;101379.75;6184879;23;19928;-56
2023/05/26 01:28:16;;;;;;;;;;;;;;;16.02;28.33;101367.63;6185127;23;20441;-58
2023/05/26 01:30:42;;;;;;;;;;;;;;;16.03;28.70;101373.91;6184365;23;19963;-58
2023/05/26 01:33:07;;;;;;;;;;;;;;;16.09;28.55;101373.06;6184346;23;19908;-58
2023/05/26 01:35:33;;;;;;;;;;;;;;;16.22;27.88;101383.06;6184158;23;19908;-58
2023/05/26 01:38:02;;;;;;;;;;;;;;;16.21;28.04;101379.53;6158438;23;19908;-57
2023/05/26 01:40:29;;;;;;;;;;;;;;;16.19;27.67;101388.91;6184758;23;19908;-57
2023/05/26 01:42:57;;;;;;;;;;;;;;;16.19;28.06;101384.31;6185193;23;19952;-58
2023/05/26 01:45:24;;;;;;;;;;;;;;;16.09;28.14;101394.75;6185168;23;19919;-58
2023/05/26 01:47:57;;;;;;;;;;;;;;;16.06;28.27;101397.84;6184509;23;19944;-59
2023/05/26 01:50:26;;;;;;;;;;;;;;;16.02;28.34;101392.00;6185375;23;20117;-59
2023/05/26 01:52:56;;;;;;;;;;;;;;;16.05;28.46;101391.59;6184946;23;19908;-59
2023/05/26 01:55:21;;;;;;;;;;;;;;;15.99;28.71;101400.56;6184350;23;19955;-58
2023/05/26 01:57:48;;;;;;;;;;;;;;;15.91;28.40;101389.91;6183956;23;19915;-58
2023/05/26 02:00:13;;;;;;;;;;;;;;;16.06;27.68;101396.00;6183804;23;19943;-58
2023/05/26 02:02:38;;;;;;;;;;;;;;;16.03;28.22;101399.13;6184905;23;19920;-58
2023/05/26 02:05:04;;;;;;;;;;;;;;;16.00;27.98;101412.25;6184748;23;19909;-58
2023/05/26 02:07:29;;;;;;;;;;;;;;;16.07;27.74;101404.97;6184619;23;19991;-58
2023/05/26 02:09:55;;;;;;;;;;;;;;;16.02;28.05;101400.13;6184785;23;19919;-59
2023/05/26 02:12:20;;;;;;;;;;;;;;;15.90;28.47;101412.66;6158182;23;19914;-57
2023/05/26 02:14:45;;;;;;;;;;;;;;;15.91;28.38;101410.75;6158226;23;19908;-58
2023/05/26 02:17:11;;;;;;;;;;;;;;;15.97;28.25;101410.78;6185234;23;19909;-58
2023/05/26 02:19:36;;;;;;;;;;;;;;;16.00;27.98;101421.19;6186311;23;19915;-57
2023/05/26 02:22:01;;;;;;;;;;;;;;;15.95;28.31;101428.28;6186695;23;19908;-56
2023/05/26 02:24:28;;;;;;;;;;;;;;;15.97;27.86;101431.59;6186601;23;19915;-59
2023/05/26 02:26:53;;;;;;;;;;;;;;;16.00;27.94;101432.03;6186325;23;19939;-58
2023/05/26 02:29:19;;;;;;;;;;;;;;;15.96;28.17;101433.50;6186573;23;19919;-59
2023/05/26 02:31:44;;;;;;;;;;;;;;;15.88;28.28;101433.69;6186343;23;19959;-58
2023/05/26 02:34:10;;;;;;;;;;;;;;;15.84;28.47;101435.13;6185764;23;19979;-54
2023/05/26 02:36:36;;;;;;;;;;;;;;;15.73;28.33;101433.84;6159745;23;19916;-54
2023/05/26 02:39:01;;;;;;;;;;;;;;;15.75;28.55;101444.47;6185626;23;19908;-54
2023/05/26 02:41:26;;;;;;;;;;;;;;;15.84;28.36;101446.81;6186116;23;20269;-57
2023/05/26 02:43:51;;;;;;;;;;;;;;;15.84;28.12;101445.94;6186659;23;19984;-58
2023/05/26 02:46:17;;;;;;;;;;;;;;;15.79;28.59;101449.28;6186303;23;20261;-54
2023/05/26 02:48:42;;;;;;;;;;;;;;;15.80;28.67;101444.69;6186071;23;19912;-59
2023/05/26 02:51:07;;;;;;;;;;;;;;;15.74;29.11;101448.22;6186491;23;19936;-58
2023/05/26 02:53:32;;;;;;;;;;;;;;;15.86;28.72;101446.56;6185962;23;20483;-59
2023/05/26 02:55:58;;;;;;;;;;;;;;;15.80;28.85;101450.94;6185905;23;19915;-59
2023/05/26 02:58:23;;;;;;;;;;;;;;;15.82;28.59;101442.63;6185943;23;19919;-58
2023/05/26 03:00:50;;;;;;;;;;;;;;;15.78;28.88;101444.06;6185588;23;20298;-56
2023/05/26 03:03:15;;;;;;;;;;;;;;;15.77;29.09;101439.72;6185468;23;19908;-58
2023/05/26 03:05:41;;;;;;;;;;;;;;;15.70;28.83;101441.53;6185897;23;19908;-59
2023/05/26 03:08:06;;;;;;;;;;;;;;;15.69;28.96;101437.97;6186186;23;19912;-57
2023/05/26 03:10:35;;;;;;;;;;;;;;;15.81;28.40;101449.09;6186059;23;19919;-58
2023/05/26 03:13:00;;;;;;;;;;;;;;;15.80;28.21;101450.13;6186123;23;19916;-58
2023/05/26 03:15:33;;;;;;;;;;;;;;;15.90;27.91;101452.41;6185811;23;19908;-58
2023/05/26 03:17:58;;;;;;;;;;;;;;;15.85;28.29;101455.75;6185797;23;20397;-58
2023/05/26 03:20:24;;;;;;;;;;;;;;;15.85;28.05;101456.59;6185792;23;19932;-58
2023/05/26 03:22:49;;;;;;;;;;;;;;;15.90;27.79;101461.41;6185852;23;19909;-56
2023/05/26 03:25:15;;;;;;;;;;;;;;;15.82;28.28;101464.28;6159782;23;19995;-58
2023/05/26 03:27:40;;;;;;;;;;;;;;;15.86;28.08;101465.53;6185446;23;19915;-58
2023/05/26 03:30:06;;;;;;;;;;;;;;;15.82;28.03;101467.00;6185590;23;19999;-55
2023/05/26 03:32:31;;;;;;;;;;;;;;;15.90;27.86;101474.09;6185556;23;19979;-58
2023/05/26 03:34:56;;;;;;;;;;;;;;;15.99;27.63;101471.03;6184929;23;20310;-57
2023/05/26 03:37:22;;;;;;;;;;;;;;;16.00;27.29;101466.44;6184336;23;19917;-55
2023/05/26 03:39:47;;;;;;;;;;;;;;;16.05;27.44;101475.59;6185315;23;20330;-56
2023/05/26 03:42:12;;;;;;;;;;;;;;;16.04;27.69;101486.66;6185443;23;19908;-57
2023/05/26 03:44:37;;;;;;;;;;;;;;;16.04;27.89;101484.75;6185593;23;19983;-56
2023/05/26 03:47:03;;;;;;;;;;;;;;;16.06;27.67;101489.97;6185361;23;19912;-56
2023/05/26 03:49:28;;;;;;;;;;;;;;;16.09;27.58;101496.88;6185456;23;19916;-58
2023/05/26 03:51:53;;;;;;;;;;;;;;;16.09;27.73;101488.75;6185783;23;19916;-57
2023/05/26 03:54:19;;;;;;;;;;;;;;;16.06;27.66;101493.56;6185893;23;20310;-57
2023/05/26 03:56:44;;;;;;;;;;;;;;;16.05;27.22;101491.88;6159033;23;20279;-55
2023/05/26 03:59:09;;;;;;;;;;;;;;;16.08;27.41;101496.03;6185444;23;19935;-58
2023/05/26 04:01:36;;;;;;;;;;;;;;;16.09;27.40;101503.13;6185409;23;19908;-54
2023/05/26 04:04:02;;;;;;;;;;;;;;;16.06;27.37;101511.66;6185338;23;20369;-55
2023/05/26 04:06:27;;;;;;;;;;;;;;;16.05;27.95;101518.97;6185327;23;19908;-57
2023/05/26 04:08:52;;;;;;;;;;;;;;;16.03;27.53;101510.22;6185346;23;20329;-55
2023/05/26 04:11:18;;;;;;;;;;;;;;;16.04;27.74;101514.56;6185392;23;19909;-58
2023/05/26 04:13:44;;;;;;;;;;;;;;;16.06;27.77;101515.22;6185503;23;20045;-55
2023/05/26 04:16:09;;;;;;;;;;;;;;;16.10;27.76;101520.22;6185165;23;19908;-54
2023/05/26 04:18:36;;;;;;;;;;;;;;;16.12;27.93;101515.44;6184983;23;19916;-58
2023/05/26 04:21:02;;;;;;;;;;;;;;;16.10;27.84;101509.38;6184842;23;19998;-54
2023/05/26 04:23:27;;;;;;;;;;;;;;;16.09;28.41;101511.25;6184994;23;19908;-54
2023/05/26 04:25:55;;;;;;;;;;;;;;;16.21;28.16;101516.91;6185413;23;19909;-55
2023/05/26 04:28:21;;;;;;;;;;;;;;;16.19;27.62;101517.09;6185130;23;20310;-58
2023/05/26 04:30:47;;;;;;;;;;;;;;;16.20;27.63;101521.50;6185022;23;19927;-56
2023/05/26 04:33:13;;;;;;;;;;;;;;;16.23;27.62;101522.97;6185345;23;19908;-54
2023/05/26 04:35:38;;;;;;;;;;;;;;;16.28;27.51;101523.19;6158399;23;20375;-53
2023/05/26 04:38:04;;;;;;;;;;;;;;;16.31;27.35;101533.63;6184377;23;19966;-56
2023/05/26 04:40:31;;;;;;;;;;;;;;;16.32;27.44;101532.56;6184694;23;20318;-54
2023/05/26 04:42:58;;;;;;;;;;;;;;;16.33;27.16;101536.97;6184872;23;19940;-53
2023/05/26 04:45:23;;;;;;;;;;;;;;;16.38;28.29;101545.31;6184748;23;19908;-54
2023/05/26 04:47:49;;;;;;;;;;;;;;;16.45;27.88;101554.31;6184692;23;19912;-56
2023/05/26 04:50:16;;;;;;;;;;;;;;;16.51;27.45;101555.38;6184794;23;19939;-55
2023/05/26 04:52:41;;;;;;;;;;;;;;;16.55;27.74;101561.22;6185130;23;19908;-57
2023/05/26 04:55:07;;;;;;;;;;;;;;;16.59;27.21;101563.28;6158529;23;20369;-57
2023/05/26 04:57:32;;;;;;;;;;;;;;;16.62;27.48;101562.88;6184869;23;19908;-56
2023/05/26 04:59:58;;;;;;;;;;;;;;;16.65;27.29;101562.44;6184807;23;20211;-56
2023/05/26 05:02:23;;;;;;;;;;;;;;;16.72;26.93;101567.06;6159004;23;19912;-58
2023/05/26 05:04:48;;;;;;;;;;;;;;;16.73;27.08;101566.84;6185437;23;19983;-58
2023/05/26 05:07:14;;;;;;;;;;;;;;;16.70;27.08;101572.69;6185582;23;19931;-54
2023/05/26 05:09:40;;;;;;;;;;;;;;;16.71;27.17;101573.53;6185103;23;19912;-57
2023/05/26 05:12:06;;;;;;;;;;;;;;;16.65;27.09;101577.91;6185265;23;19967;-56
2023/05/26 05:14:31;;;;;;;;;;;;;;;16.69;26.68;101579.16;6158478;23;19908;-57
2023/05/26 05:16:56;;;;;;;;;;;;;;;16.71;26.68;101582.50;6184927;23;20246;-55
2023/05/26 05:19:21;;;;;;;;;;;;;;;16.77;26.61;101581.69;6184907;23;19915;-55
2023/05/26 05:21:47;;;;;;;;;;;;;;;16.80;26.48;101577.72;6185232;23;19908;-57
2023/05/26 05:24:12;;;;;;;;;;;;;;;16.81;26.39;101576.69;6185029;23;20266;-58
2023/05/26 05:26:37;;;;;;;;;;;;;;;16.88;26.08;101572.09;6184988;23;19908;-57
2023/05/26 05:29:03;;;;;;;;;;;;;;;16.87;26.19;101577.75;6185170;23;19912;-57
2023/05/26 05:31:28;;;;;;;;;;;;;;;17.05;26.16;101577.97;6185093;23;19991;-56
2023/05/26 05:33:53;;;;;;;;;;;;;;;17.13;25.82;101575.03;6184648;23;19912;-56
2023/05/26 05:36:19;;;;;;;;;;;;;;;17.10;25.08;101585.47;6184223;23;19931;-57
2023/05/26 05:38:44;;;;;;;;;;;;;;;16.96;24.95;101585.47;6183320;23;19931;-57
2023/05/26 05:41:10;;;;;;;;;;;;;;;16.97;24.64;101578.97;6184773;23;19932;-58
2023/05/26 05:43:35;;;;;;;;;;;;;;;17.13;24.32;101585.06;6184541;23;19909;-60
2023/05/26 05:46:00;;;;;;;;;;;;;;;17.05;24.21;101580.69;6184432;23;19908;-57
2023/05/26 05:48:26;;;;;;;;;;;;;;;17.17;24.31;101575.44;6184836;23;19915;-59
2023/05/26 05:50:51;;;;;;;;;;;;;;;17.23;23.76;101582.72;6185207;23;19908;-58
2023/05/26 05:53:16;;;;;;;;;;;;;;;17.30;23.86;101590.88;6186876;23;19908;-57
2023/05/26 05:55:43;;;;;;;;;;;;;;;17.38;23.89;101583.38;6186781;23;20082;-58
2023/05/26 05:58:08;;;;;;;;;;;;;;;17.12;23.67;101591.50;6186726;23;19908;-58
2023/05/26 06:00:33;;;;;;;;;;;;;;;17.31;23.21;101595.25;6160651;23;19920;-58
2023/05/26 06:02:59;;;;;;;;;;;;;;;17.31;23.65;101587.97;6186499;23;19912;-56
2023/05/26 06:05:26;;;;;;;;;;;;;;;17.34;23.23;101598.38;6186593;23;20310;-50
2023/05/26 06:07:51;;;;;;;;;;;;;;;17.39;23.16;101595.06;6160154;23;19908;-51
2023/05/26 06:10:17;;;;;;;;;;;;;;;17.52;23.21;101602.34;6186434;23;20237;-54
2023/05/26 06:12:42;;;;;;;;;;;;;;;17.56;22.92;101601.69;6187052;23;19960;-57
2023/05/26 06:15:07;;;;;;;;;;;;;;;17.58;22.77;101609.63;6186984;23;20284;-52
2023/05/26 06:17:33;;;;;;;;;;;;;;;17.52;22.75;101615.94;6186269;23;20329;-57
2023/05/26 06:19:58;;;;;;;;;;;;;;;17.55;22.69;101619.06;6187509;23;20024;-55
2023/05/26 06:22:23;;;;;;;;;;;;;;;17.63;22.29;101611.72;6186674;23;19913;-56
2023/05/26 06:24:48;;;;;;;;;;;;;;;17.70;22.31;101623.41;6186255;23;19940;-56
2023/05/26 06:27:14;;;;;;;;;;;;;;;17.82;22.28;101621.69;6186781;23;20256;-54
2023/05/26 06:29:39;;;;;;;;;;;;;;;17.78;22.05;101621.28;6186188;23;20018;-54
2023/05/26 06:32:04;;;;;;;;;;;;;;;17.65;21.79;101632.19;6186258;23;19915;-55
2023/05/26 06:34:30;;;;;;;;;;;;;;;17.79;21.41;101630.28;6185716;23;19959;-56
2023/05/26 06:36:55;;;;;;;;;;;;;;;17.86;21.49;101643.88;6185953;23;20230;-55
2023/05/26 06:39:21;;;;;;;;;;;;;;;18.06;21.51;101638.38;6184956;23;19959;-54
2023/05/26 06:41:46;;;;;;;;;;;;;;;18.18;21.38;101632.06;6185999;23;19908;-57
2023/05/26 06:44:12;;;;;;;;;;;;;;;18.30;21.59;101631.41;6186380;23;20294;-54
2023/05/26 06:46:37;;;;;;;;;;;;;;;18.32;21.18;101640.16;6185830;23;20312;-55
2023/05/26 06:49:03;;;;;;;;;;;;;;;18.34;21.28;101638.88;6186162;23;19919;-51
2023/05/26 06:51:28;;;;;;;;;;;;;;;18.31;20.70;101650.22;6186139;23;19908;-54
2023/05/26 06:53:53;;;;;;;;;;;;;;;18.11;20.68;101641.31;6186384;23;19983;-58
2023/05/26 06:56:18;;;;;;;;;;;;;;;17.95;20.82;101650.75;6186070;23;19999;-55
2023/05/26 06:58:44;;;;;;;;;;;;;;;18.29;20.75;101655.00;6185824;23;19912;-57
2023/05/26 07:01:09;;;;;;;;;;;;;;;18.37;20.77;101653.97;6185969;23;19908;-53
2023/05/26 07:03:34;;;;;;;;;;;;;;;18.46;20.55;101652.66;6185516;23;19909;-56
2023/05/26 07:06:00;;;;;;;;;;;;;;;18.36;20.14;101674.03;6186082;23;19909;-65
2023/05/26 07:08:29;;;;;;;;;;;;;;;18.35;20.57;101647.91;6186132;23;20002;-65
2023/05/26 07:10:54;;;;;;;;;;;;;;;18.46;20.34;101655.38;6186052;23;19919;-68
2023/05/26 07:13:20;;;;;;;;;;;;;;;18.27;20.60;101648.97;6185805;23;19908;-65
2023/05/26 07:15:45;;;;;;;;;;;;;;;18.47;21.02;101658.94;6185687;23;20273;-55
2023/05/26 07:18:11;;;;;;;;;;;;;;;18.45;20.30;101667.28;6185721;23;19915;-53
2023/05/26 07:20:36;;;;;;;;;;;;;;;18.40;20.04;101669.00;6185822;23;19928;-53
2023/05/26 07:23:01;;;;;;;;;;;;;;;18.53;20.04;101663.50;6186031;23;19915;-54
2023/05/26 07:25:27;;;;;;;;;;;;;;;18.66;20.55;101670.75;6186111;23;19909;-55
2023/05/26 07:27:52;;;;;;;;;;;;;;;18.57;19.40;101679.19;6185450;23;19916;-57
2023/05/26 07:30:18;;;;;;;;;;;;;;;18.53;19.41;101675.19;6185777;23;19912;-56
2023/05/26 07:32:43;;;;;;;;;;;;;;;18.82;19.50;101678.44;6185571;23;20475;-53
2023/05/26 07:35:08;;;;;;;;;;;;;;;18.50;19.04;101693.88;6184784;23;20399;-66
2023/05/26 07:37:34;;;;;;;;;;;;;;;18.60;19.14;101683.34;6183914;23;19924;-64
2023/05/26 07:39:59;;;;;;;;;;;;;;;18.66;19.37;101687.91;6184634;23;19923;-65
2023/05/26 07:42:25;;;;;;;;;;;;;;;19.03;19.49;101685.41;6185068;23;19922;-52
2023/05/26 07:44:50;;;;;;;;;;;;;;;19.25;18.79;101685.88;6185380;23;19958;-56
2023/05/26 07:47:15;;;;;;;;;;;;;;;19.27;18.43;101682.94;6185503;23;19912;-55
2023/05/26 07:49:41;;;;;;;;;;;;;;;19.47;18.90;101697.22;6184925;23;19923;-52
2023/05/26 07:52:06;;;;;;;;;;;;;;;19.49;18.45;101697.84;6185001;23;19912;-51
2023/05/26 07:54:33;;;;;;;;;;;;;;;19.50;18.05;101699.53;6132127;23;19986;-53
2023/05/26 07:56:58;;;;;;;;;;;;;;;19.78;18.35;101703.69;6185173;23;19908;-54
2023/05/26 07:59:23;;;;;;;;;;;;;;;19.61;17.66;101694.38;6185361;23;20018;-50
2023/05/26 08:01:49;;;;;;;;;;;;;;;19.77;18.15;101704.75;6185027;23;19915;-51
2023/05/26 08:04:14;;;;;;;;;;;;;;;19.86;17.83;101713.47;6184545;23;19912;-48
2023/05/26 08:06:40;;;;;;;;;;;;;;;19.78;17.34;101708.28;6185725;23;19912;-52
2023/05/26 08:09:05;;;;;;;;;;;;;;;19.81;17.42;101716.03;6185384;23;20314;-53
2023/05/26 08:11:30;;;;;;;;;;;;;;;19.93;17.36;101708.78;6185167;23;19908;-50
2023/05/26 08:13:56;;;;;;;;;;;;;;;20.16;17.00;101707.28;6185192;23;19913;-49
2023/05/26 08:16:21;;;;;;;;;;;;;;;20.23;16.42;101699.88;6185056;23;19914;-55
2023/05/26 08:18:46;;;;;;;;;;;;;;;20.43;17.25;101710.53;6184851;23;20214;-51
2023/05/26 08:21:11;;;;;;;;;;;;;;;20.42;16.75;101719.78;6184672;23;19940;-50
2023/05/26 08:23:37;;;;;;;;;;;;;;;20.43;16.44;101721.44;6184712;23;19996;-48
2023/05/26 08:26:02;;;;;;;;;;;;;;;20.75;16.98;101719.38;6185260;23;19909;-51
2023/05/26 08:28:27;;;;;;;;;;;;;;;20.57;16.52;101725.66;6184689;23;20202;-55
2023/05/26 08:30:53;;;;;;;;;;;;;;;20.49;16.99;101709.63;6185332;23;19908;-54
2023/05/26 08:33:18;;;;;;;;;;;;;;;20.59;16.61;101739.91;6184876;23;20362;-53
2023/05/26 08:35:43;;;;;;;;;;;;;;;20.87;16.23;101733.91;6184764;23;19916;-51
2023/05/26 08:38:08;;;;;;;;;;;;;;;21.05;16.75;101721.28;6184035;23;19909;-48
2023/05/26 08:40:34;;;;;;;;;;;;;;;21.00;16.26;101732.88;6184841;23;19919;-51
2023/05/26 08:43:02;;;;;;;;;;;;;;;21.07;16.63;101732.81;6184899;23;19909;-52
2023/05/26 08:45:28;;;;;;;;;;;;;;;21.19;16.53;101730.94;6185548;23;19908;-53
2023/05/26 08:47:55;;;;;;;;;;;;;;;21.35;16.44;101737.63;6185007;23;19915;-52
2023/05/26 08:50:20;;;;;;;;;;;;;;;21.48;16.30;101738.53;6184988;23;19912;-52
2023/05/26 08:52:47;;;;;;;;;;;;;;;21.78;16.66;101731.03;6158471;23;19914;-54
2023/05/26 08:55:13;;;;;;;;;;;;;;;22.07;16.56;101727.59;6185081;23;19978;-56
2023/05/26 08:57:40;;;;;;;;;;;;;;;21.96;15.90;101727.34;6158548;23;19908;-53
2023/05/26 09:00:07;;;;;;;;;;;;;;;21.51;15.78;101733.41;6184811;23;20360;-54
2023/05/26 09:02:32;;;;;;;;;;;;;;;21.74;16.09;101729.84;6184739;23;19915;-49
2023/05/26 09:04:58;;;;;;;;;;;;;;;21.91;15.43;101729.97;6185274;23;19908;-52
2023/05/26 09:07:23;;;;;;;;;;;;;;;22.14;16.54;101718.19;6184972;23;19940;-52
2023/05/26 09:09:48;;;;;;;;;;;;;;;22.34;16.48;101730.66;6184941;23;19991;-55
2023/05/26 09:12:14;;;;;;;;;;;;;;;22.55;15.80;101723.72;6184592;23;19912;-51
2023/05/26 09:14:39;;;;;;;;;;;;;;;22.83;15.73;101724.81;6184623;23;19940;-50
2023/05/26 09:17:05;;;;;;;;;;;;;;;23.10;16.20;101725.03;6184899;23;19944;-49
2023/05/26 09:19:31;;;;;;;;;;;;;;;23.23;15.90;101729.38;6185067;23;19916;-49
2023/05/26 09:22:03;;;;;;;;;;;;;;;23.56;15.12;101729.38;6184938;23;19908;-48
2023/05/26 09:24:29;;;;;;;;;;;;;;;23.42;14.66;101732.72;6184992;23;19908;-49
2023/05/26 09:26:54;;;;;;;;;;;;;;;23.66;14.60;101733.38;6187227;23;19967;-51
2023/05/26 09:29:19;;;;;;;;;;;;;;;23.69;14.89;101733.72;6188948;23;19919;-49
2023/05/26 09:31:45;;;;;;;;;;;;;;;23.73;13.89;101732.13;6187629;23;20234;-52
2023/05/26 09:34:11;;;;;;;;;;;;;;;23.96;14.58;101733.06;6186887;23;20003;-50
2023/05/26 09:36:40;;;;;;;;;;;;;;;23.70;14.28;101732.63;6186424;23;19920;-53
2023/05/26 09:39:07;;;;;;;;;;;;;;;23.68;14.57;101726.56;6159577;23;19918;-53
2023/05/26 09:41:36;;;;;;;;;;;;;;;23.42;14.13;101743.69;6187351;23;19908;-54
2023/05/26 09:44:12;;;;;;;;;;;;;;;23.37;13.92;101737.03;6187179;23;19983;-50
2023/05/26 09:46:37;;;;;;;;;;;;;;;23.66;14.18;101741.59;6187072;23;19916;-56
2023/05/26 09:49:16;;;;;;;;;;;;;;;23.84;14.33;101752.34;6186996;23;20193;-51
2023/05/26 09:51:42;;;;;;;;;;;;;;;24.10;13.32;101748.06;6186721;23;19939;-55
2023/05/26 09:54:09;;;;;;;;;;;;;;;23.90;13.62;101740.38;6186938;23;19919;-53
2023/05/26 09:56:35;;;;;;;;;;;;;;;24.05;13.79;101737.03;6186680;23;20314;-56
2023/05/26 09:59:06;;;;;;;;;;;;;;;24.14;14.15;101746.50;6186865;23;19983;-52
2023/05/26 10:01:36;;;;;;;;;;;;;;;24.12;14.08;101748.63;6186045;23;20332;-52
2023/05/26 10:04:03;;;;;;;;;;;;;;;24.53;13.78;101743.72;6160331;23;19916;-52
2023/05/26 10:06:30;;;;;;;;;;;;;;;24.61;13.56;101749.84;6186442;23;20337;-54
2023/05/26 10:08:58;;;;;;;;;;;;;;;24.47;13.29;101746.63;6186691;23;19919;-50
2023/05/26 10:11:27;;;;;;;;;;;;;;;24.77;13.73;101745.34;6186178;23;20031;-52
2023/05/26 10:13:54;;;;;;;;;;;;;;;24.68;13.10;101743.06;6186363;23;20010;-55
2023/05/26 10:16:20;;;;;;;;;;;;;;;25.10;13.17;101749.81;6186634;23;20447;-52
2023/05/26 10:18:45;;;;;;;;;;;;;;;25.07;12.92;101747.59;6186314;23;19908;-54
2023/05/26 10:21:12;;;;;;;;;;;;;;;25.40;13.15;101740.22;6186246;23;19908;-50
2023/05/26 10:23:44;;;;;;;;;;;;;;;25.71;13.63;101748.72;6186634;23;19943;-55
2023/05/26 10:26:20;;;;;;;;;;;;;;;25.92;13.54;101753.28;6186358;23;20288;-55
2023/05/26 10:28:56;;;;;;;;;;;;;;;25.92;13.01;101752.44;6186549;23;19912;-52
2023/05/26 10:31:31;;;;;;;;;;;;;;;26.01;13.08;101751.69;6186320;23;19908;-53
2023/05/26 10:33:56;;;;;;;;;;;;;;;26.13;12.96;101751.47;6186379;23;19912;-51
2023/05/26 10:36:23;;;;;;;;;;;;;;;26.18;12.96;101747.94;6185705;23;19916;-52
2023/05/26 10:38:52;;;;;;;;;;;;;;;26.23;12.92;101747.97;6185300;23;19908;-54
2023/05/26 10:41:31;;;;;;;;;;;;;;;26.41;13.66;101749.41;6186725;23;19908;-55
2023/05/26 10:43:57;;;;;;;;;;;;;;;26.56;12.48;101751.41;6186781;23;19979;-53
2023/05/26 10:46:22;;;;;;;;;;;;;;;26.64;12.64;101743.47;6159664;23;20269;-56
2023/05/26 10:48:57;;;;;;;;;;;;;;;26.69;11.98;101745.44;6186254;23;19919;-55
2023/05/26 10:51:34;;;;;;;;;;;;;;;26.83;13.13;101740.22;6185801;23;20242;-53
2023/05/26 10:54:13;;;;;;;;;;;;;;;27.06;13.24;101733.41;6186480;23;19961;-55
2023/05/26 10:56:42;;;;;;;;;;;;;;;27.24;12.02;101741.09;6186142;23;20488;-52
2023/05/26 10:59:07;;;;;;;;;;;;;;;27.52;11.95;101732.59;6185912;23;19962;-54
2023/05/26 11:01:33;;;;;;;;;;;;;;;27.91;11.64;101732.00;6185837;23;20237;-53
2023/05/26 11:04:01;;;;;;;;;;;;;;;28.30;12.03;101723.88;6186353;23;19982;-55
2023/05/26 11:06:45;;;;;;;;;;;;;;;28.19;12.45;101728.63;6185901;23;19987;-53
2023/05/26 11:09:11;;;;;;;;;;;;;;;28.49;11.61;101729.59;6186162;23;19971;-53
2023/05/26 11:11:39;;;;;;;;;;;;;;;28.21;11.41;101733.03;6186227;23;19908;-52
2023/05/26 11:14:06;;;;;;;;;;;;;;;28.28;11.95;101730.78;6185822;23;19948;-54
2023/05/26 11:16:35;;;;;;;;;;;;;;;28.48;11.29;101736.22;6185524;23;19908;-54
2023/05/26 11:19:02;;;;;;;;;;;;;;;28.99;11.90;101731.53;6185742;23;20325;-52
2023/05/26 11:21:28;;;;;;;;;;;;;;;29.19;11.91;101725.06;6186120;23;19947;-54
2023/05/26 11:23:54;;;;;;;;;;;;;;;29.32;12.09;101727.16;6185780;23;19908;-53
2023/05/26 11:26:21;;;;;;;;;;;;;;;29.06;10.71;101723.75;6185470;23;20345;-52
2023/05/26 11:28:47;;;;;;;;;;;;;;;29.02;11.10;101729.03;6185422;23;19916;-52
2023/05/26 11:31:16;;;;;;;;;;;;;;;28.55;10.89;101724.91;6185691;23;19991;-53
2023/05/26 11:33:42;;;;;;;;;;;;;;;28.42;11.31;101731.00;6185737;23;19996;-52
2023/05/26 11:36:08;;;;;;;;;;;;;;;28.58;11.56;101735.38;6185595;23;19920;-52
2023/05/26 11:38:35;;;;;;;;;;;;;;;28.56;11.16;101737.59;6184769;23;20221;-52
2023/05/26 11:41:02;;;;;;;;;;;;;;;28.72;10.90;101741.13;6185500;23;20534;-50
2023/05/26 11:43:27;;;;;;;;;;;;;;;28.63;10.87;101740.88;6185759;23;19908;-53
2023/05/26 11:45:52;;;;;;;;;;;;;;;28.88;11.57;101734.38;6159068;23;20318;-53
2023/05/26 11:48:18;;;;;;;;;;;;;;;29.20;11.12;101735.84;6185946;23;19909;-52
2023/05/26 11:50:43;;;;;;;;;;;;;;;29.06;10.82;101735.63;6185160;23;19967;-56
2023/05/26 11:53:09;;;;;;;;;;;;;;;28.98;10.83;101705.84;6185914;23;19908;-51
2023/05/26 11:55:35;;;;;;;;;;;;;;;28.84;10.85;101726.94;6185286;23;20257;-53
2023/05/26 11:58:00;;;;;;;;;;;;;;;28.71;10.29;101736.69;6184880;23;19908;-54
2023/05/26 12:00:26;;;;;;;;;;;;;;;28.89;10.22;101746.28;6184964;23;19909;-52
2023/05/26 12:02:51;;;;;;;;;;;;;;;28.64;10.99;101748.09;6184774;23;20298;-54
2023/05/26 12:05:25;;;;;;;;;;;;;;;29.11;10.92;101743.09;6185197;23;19908;-50
2023/05/26 12:08:03;;;;;;;;;;;;;;;29.15;10.09;101741.41;6185351;23;19996;-52
2023/05/26 12:10:30;;;;;;;;;;;;;;;28.95;10.67;101736.81;6185015;23;19963;-50
2023/05/26 12:12:55;;;;;;;;;;;;;;;29.47;10.22;101759.41;6185480;23;19918;-52
2023/05/26 12:15:21;;;;;;;;;;;;;;;29.94;10.71;101741.28;6185395;23;20482;-56
2023/05/26 12:17:53;;;;;;;;;;;;;;;29.91;9.45;101736.31;6185117;23;19909;-53
2023/05/26 12:20:19;;;;;;;;;;;;;;;30.03;9.72;101733.13;6185206;23;19916;-54
2023/05/26 12:22:44;;;;;;;;;;;;;;;29.60;9.05;101752.38;6185077;23;19912;-50
2023/05/26 12:25:10;;;;;;;;;;;;;;;30.08;9.85;101741.41;6185524;23;19909;-53
2023/05/26 12:27:36;;;;;;;;;;;;;;;30.62;10.20;101739.38;6185118;23;19908;-54
2023/05/26 12:30:22;;;;;;;;;;;;;;;30.45;9.72;101737.09;6184667;23;20302;-50
2023/05/26 12:32:50;;;;;;;;;;;;;;;31.00;8.95;101729.13;6183910;23;19946;-53
2023/05/26 12:35:16;;;;;;;;;;;;;;;31.21;9.04;101739.91;6185053;23;20035;-55